Terminal Aerodrome Forecast
Issued by NWS Miami, FL

Current Version | Previous Version | Text Only | Print | Product List | Glossary On
Versions: 1 2 3 4 5 6 7 8 9 10 11 12 13 14 15 16 17 18 19 20 21 22
000
FTUS42 KMFL 201735
TAFFLL
TAF
KFLL 201735Z 2018/2124 11015G24KT P6SM VCSH SCT025 BKN050
      TEMPO 2018/2021 6SM -SHRA SCT015 BKN025
     FM202100 11014G23KT P6SM FEW025 SCT050
     FM211400 11015G24KT P6SM SCT025 BKN050=

USA.gov is the U.S. government's official web portal to all federal, state and local government web resources and services.